createdAt,value
2017-02-26T00:00:33.883Z,1013.42
2017-02-26T00:01:14.515Z,1013.45
2017-02-26T00:01:55.211Z,1013.43
2017-02-26T00:02:35.845Z,1013.43
2017-02-26T00:03:16.592Z,1013.42
2017-02-26T00:03:57.241Z,1013.39
2017-02-26T00:04:37.884Z,1013.41
2017-02-26T00:05:18.592Z,1013.43
2017-02-26T00:05:59.240Z,1013.39
2017-02-26T00:06:39.871Z,1013.43
2017-02-26T00:07:20.558Z,1013.43
2017-02-26T00:08:01.186Z,1013.41
2017-02-26T00:08:41.899Z,1013.41
2017-02-26T00:09:22.467Z,1013.41
2017-02-26T00:10:03.177Z,1013.43
2017-02-26T00:10:43.861Z,1013.42
2017-02-26T00:11:24.493Z,1013.47
2017-02-26T00:12:05.143Z,1013.46
2017-02-26T00:12:45.791Z,1013.41
2017-02-26T00:13:26.440Z,1013.42
2017-02-26T00:14:07.156Z,1013.42
2017-02-26T00:14:47.782Z,1013.48
2017-02-26T00:15:28.414Z,1013.47
2017-02-26T00:16:09.091Z,1013.51
2017-02-26T00:16:49.823Z,1013.43
2017-02-26T00:17:30.466Z,1013.46
2017-02-26T00:18:11.123Z,1013.46
2017-02-26T00:18:51.857Z,1013.46
2017-02-26T00:19:32.485Z,1013.42
2017-02-26T00:20:13.118Z,1013.42
2017-02-26T00:20:53.752Z,1013.38
2017-02-26T00:21:34.390Z,1013.4
2017-02-26T00:22:15.023Z,1013.38
2017-02-26T00:22:55.750Z,1013.39
2017-02-26T00:23:36.434Z,1013.4
2017-02-26T00:24:17.096Z,1013.41
2017-02-26T00:24:57.821Z,1013.41
2017-02-26T00:25:38.530Z,1013.45
2017-02-26T00:26:19.257Z,1013.42
2017-02-26T00:26:59.804Z,1013.38
2017-02-26T00:27:40.535Z,1013.44
2017-02-26T00:28:21.175Z,1013.42
2017-02-26T00:29:01.827Z,1013.42
2017-02-26T00:29:42.463Z,1013.42
2017-02-26T00:30:23.120Z,1013.47
2017-02-26T00:31:03.744Z,1013.41
2017-02-26T00:31:44.426Z,1013.42
2017-02-26T00:32:25.060Z,1013.4
2017-02-26T00:33:05.686Z,1013.46
2017-02-26T00:33:46.341Z,1013.46
2017-02-26T00:34:26.994Z,1013.46
2017-02-26T00:35:07.627Z,1013.44
2017-02-26T00:35:48.299Z,1013.38
2017-02-26T00:36:28.930Z,1013.42
2017-02-26T00:37:09.580Z,1013.41
2017-02-26T00:37:50.261Z,1013.4
2017-02-26T00:38:31.009Z,1013.38
2017-02-26T00:39:11.643Z,1013.45
2017-02-26T00:39:52.302Z,1013.44
2017-02-26T00:40:32.959Z,1013.41
2017-02-26T00:41:13.597Z,1013.43
2017-02-26T00:41:54.230Z,1013.34
2017-02-26T00:42:34.879Z,1013.34
2017-02-26T00:43:15.517Z,1013.35
2017-02-26T00:43:56.138Z,1013.34
2017-02-26T00:44:36.771Z,1013.32
2017-02-26T00:45:17.408Z,1013.32
2017-02-26T00:45:58.115Z,1013.32
2017-02-26T00:46:38.834Z,1013.34
2017-02-26T00:47:19.463Z,1013.34
2017-02-26T00:48:00.088Z,1013.41
2017-02-26T00:48:40.781Z,1013.36
2017-02-26T00:49:21.412Z,1013.37
2017-02-26T00:50:02.059Z,1013.36
2017-02-26T00:50:42.808Z,1013.37
2017-02-26T00:51:23.517Z,1013.36
2017-02-26T00:52:04.268Z,1013.34
2017-02-26T00:52:44.806Z,1013.35
2017-02-26T00:53:25.472Z,1013.37
2017-02-26T00:54:06.126Z,1013.31
2017-02-26T00:54:46.783Z,1013.32
2017-02-26T00:55:27.933Z,1013.36
2017-02-26T00:56:08.565Z,1013.34
2017-02-26T00:56:49.193Z,1013.35
2017-02-26T00:57:29.831Z,1013.32
2017-02-26T00:58:10.545Z,1013.35
2017-02-26T00:58:51.216Z,1013.33
2017-02-26T00:59:31.871Z,1013.38
2017-02-26T01:00:12.581Z,1013.36
2017-02-26T01:00:53.331Z,1013.35
2017-02-26T01:01:33.969Z,1013.38
2017-02-26T01:02:14.609Z,1013.33
2017-02-26T01:02:55.309Z,1013.36
2017-02-26T01:03:35.990Z,1013.37
2017-02-26T01:04:16.626Z,1013.29
2017-02-26T01:04:57.288Z,1013.36
2017-02-26T01:05:37.999Z,1013.34
2017-02-26T01:06:18.624Z,1013.36
2017-02-26T01:06:59.303Z,1013.36
2017-02-26T01:07:39.961Z,1013.35
2017-02-26T01:08:20.678Z,1013.34
2017-02-26T01:09:01.335Z,1013.32
2017-02-26T01:09:42.005Z,1013.36
2017-02-26T01:10:22.683Z,1013.35
2017-02-26T01:11:03.315Z,1013.32
2017-02-26T01:11:43.954Z,1013.31
2017-02-26T01:12:24.603Z,1013.29
2017-02-26T01:13:05.235Z,1013.28
2017-02-26T01:13:45.982Z,1013.29
2017-02-26T01:14:26.635Z,1013.33
2017-02-26T01:15:07.282Z,1013.31
2017-02-26T01:15:47.967Z,1013.34
2017-02-26T01:16:28.681Z,1013.3
2017-02-26T01:17:09.356Z,1013.3
2017-02-26T01:17:50.003Z,1013.31
2017-02-26T01:18:30.780Z,1013.33
2017-02-26T01:19:11.495Z,1013.31
2017-02-26T01:19:52.229Z,1013.31
2017-02-26T01:20:32.763Z,1013.33
2017-02-26T01:21:13.504Z,1013.3
2017-02-26T01:21:54.177Z,1013.34
2017-02-26T01:22:34.831Z,1013.29
2017-02-26T01:23:15.489Z,1013.34
2017-02-26T01:23:56.131Z,1013.28
2017-02-26T01:24:36.764Z,1013.26
2017-02-26T01:25:17.486Z,1013.24
2017-02-26T01:25:58.184Z,1013.26
2017-02-26T01:26:38.829Z,1013.21
2017-02-26T01:27:19.476Z,1013.22
2017-02-26T01:28:00.163Z,1013.23
2017-02-26T01:28:40.789Z,1013.21
2017-02-26T01:29:21.431Z,1013.24
2017-02-26T01:30:02.068Z,1013.25
2017-02-26T01:30:42.703Z,1013.24
2017-02-26T01:31:23.339Z,1013.17
2017-02-26T01:32:04.042Z,1013.19
2017-02-26T01:32:44.751Z,1013.15
2017-02-26T01:33:25.429Z,1013.14
2017-02-26T01:34:06.149Z,1013.17
2017-02-26T01:34:46.852Z,1013.14
2017-02-26T01:35:27.490Z,1013.12
2017-02-26T01:36:08.189Z,1013.17
2017-02-26T01:36:48.886Z,1013.15
2017-02-26T01:37:29.581Z,1013.13
2017-02-26T01:38:10.232Z,1013.14
2017-02-26T01:38:50.956Z,1013.14
2017-02-26T01:39:31.580Z,1013.23
2017-02-26T01:40:12.212Z,1013.21
2017-02-26T01:40:52.844Z,1013.17
2017-02-26T01:41:33.478Z,1013.18
2017-02-26T01:42:14.109Z,1013.21
2017-02-26T01:42:54.835Z,1013.24
2017-02-26T01:43:35.492Z,1013.23
2017-02-26T01:44:16.145Z,1013.23
2017-02-26T01:44:56.847Z,1013.26
2017-02-26T01:45:37.513Z,1013.24
2017-02-26T01:46:18.195Z,1013.21
2017-02-26T01:46:58.781Z,1013.18
2017-02-26T01:47:39.549Z,1013.21
2017-02-26T01:48:20.218Z,1013.22
2017-02-26T01:49:00.854Z,1013.23
2017-02-26T01:49:41.560Z,1013.18
2017-02-26T01:50:22.224Z,1013.16
2017-02-26T01:51:02.868Z,1013.21
2017-02-26T01:51:43.488Z,1013.17
2017-02-26T01:52:24.149Z,1013.14
2017-02-26T01:53:04.775Z,1013.13
2017-02-26T01:53:45.452Z,1013.15
2017-02-26T01:54:26.116Z,1013.17
2017-02-26T01:55:06.753Z,1013.11
2017-02-26T01:55:47.383Z,1013.17
2017-02-26T01:56:28.114Z,1013.13
2017-02-26T01:57:08.847Z,1013.18
2017-02-26T01:57:49.404Z,1013.19
2017-02-26T01:58:30.121Z,1013.17
2017-02-26T01:59:10.807Z,1013.17
2017-02-26T01:59:51.432Z,1013.19
2017-02-26T02:00:32.062Z,1013.19
2017-02-26T02:01:12.718Z,1013.19
2017-02-26T02:01:53.345Z,1013.14
2017-02-26T02:02:34.076Z,1013.17
2017-02-26T02:03:14.729Z,1013.15
2017-02-26T02:03:55.372Z,1013.14
2017-02-26T02:04:36.027Z,1013.12
2017-02-26T02:05:16.661Z,1013.14
2017-02-26T02:05:57.290Z,1013.19
2017-02-26T02:06:37.954Z,1013.14
2017-02-26T02:07:18.658Z,1013.1
2017-02-26T02:07:59.298Z,1013.16
2017-02-26T02:08:39.981Z,1013.08
2017-02-26T02:09:20.704Z,1013.1
2017-02-26T02:10:01.345Z,1013.07
2017-02-26T02:10:41.978Z,1013.07
2017-02-26T02:11:22.691Z,1013.07
2017-02-26T02:12:03.378Z,1013.01
2017-02-26T02:12:44.013Z,1013.06
2017-02-26T02:13:24.694Z,1013.02
2017-02-26T02:14:05.319Z,1013.04
2017-02-26T02:14:45.955Z,1012.99
2017-02-26T02:15:26.669Z,1013.08
2017-02-26T02:16:07.303Z,1013.1
2017-02-26T02:16:47.934Z,1013.1
2017-02-26T02:17:28.606Z,1013.13
2017-02-26T02:18:09.240Z,1013.15
2017-02-26T02:18:49.872Z,1013.17
2017-02-26T02:19:30.542Z,1013.16
2017-02-26T02:20:11.271Z,1013.16
2017-02-26T02:20:51.960Z,1013.16
2017-02-26T02:21:32.598Z,1013.18
2017-02-26T02:22:13.302Z,1013.13
2017-02-26T02:22:53.936Z,1013.17
2017-02-26T02:23:34.569Z,1013.14
2017-02-26T02:24:15.236Z,1013.11
2017-02-26T02:24:55.866Z,1013.16
2017-02-26T02:25:36.514Z,1013.12
2017-02-26T02:26:17.202Z,1013.08
2017-02-26T02:26:57.953Z,1013.1
2017-02-26T02:27:38.683Z,1013.09
2017-02-26T02:28:19.228Z,1013.06
2017-02-26T02:28:59.962Z,1013.02
2017-02-26T02:29:40.627Z,1013.02
2017-02-26T02:30:21.250Z,1013.02
2017-02-26T02:31:01.932Z,1013.03
2017-02-26T02:31:42.578Z,1013.03
2017-02-26T02:32:23.211Z,1013
2017-02-26T02:33:03.885Z,1013
2017-02-26T02:33:44.529Z,1013.02
2017-02-26T02:34:25.163Z,1012.97
2017-02-26T02:35:05.850Z,1012.98
2017-02-26T02:35:46.593Z,1012.98
2017-02-26T02:36:27.223Z,1012.98
2017-02-26T02:37:07.877Z,1013.01
2017-02-26T02:37:48.525Z,1012.96
2017-02-26T02:38:29.175Z,1013.01
2017-02-26T02:39:09.803Z,1012.99
2017-02-26T02:39:50.430Z,1012.99
2017-02-26T02:40:31.064Z,1012.98
2017-02-26T02:41:12.240Z,1013.01
2017-02-26T02:41:52.864Z,1013.02
2017-02-26T02:42:33.582Z,1012.99
2017-02-26T02:43:14.264Z,1013.01
2017-02-26T02:43:54.891Z,1013.04
2017-02-26T02:44:35.614Z,1013.01
2017-02-26T02:45:16.259Z,1013.03
2017-02-26T02:45:57.598Z,1013
2017-02-26T02:46:37.581Z,1012.96
2017-02-26T02:47:18.253Z,1013
2017-02-26T02:47:58.940Z,1012.97
2017-02-26T02:48:39.588Z,1012.96
2017-02-26T02:49:20.312Z,1012.99
2017-02-26T02:50:00.945Z,1012.95
2017-02-26T02:50:41.586Z,1012.98
2017-02-26T02:51:22.230Z,1013.01
2017-02-26T02:52:02.909Z,1012.95
2017-02-26T02:52:43.539Z,1012.95
2017-02-26T02:53:24.213Z,1012.94
2017-02-26T02:54:04.938Z,1012.91
2017-02-26T02:54:45.600Z,1012.91
2017-02-26T02:55:26.190Z,1012.86
2017-02-26T02:56:06.827Z,1012.86
2017-02-26T02:56:47.457Z,1012.86
2017-02-26T02:57:28.160Z,1012.91
2017-02-26T02:58:08.781Z,1012.89
2017-02-26T02:58:49.409Z,1012.89
2017-02-26T02:59:30.036Z,1012.86
2017-02-26T03:00:10.665Z,1012.88
2017-02-26T03:00:51.292Z,1012.89
2017-02-26T03:01:31.964Z,1012.87
2017-02-26T03:02:12.595Z,1012.9
2017-02-26T03:02:53.231Z,1012.85
2017-02-26T03:03:33.951Z,1012.87
2017-02-26T03:04:14.586Z,1012.82
2017-02-26T03:04:55.220Z,1012.82
2017-02-26T03:05:35.854Z,1012.85
2017-02-26T03:06:16.551Z,1012.84
2017-02-26T03:06:57.255Z,1012.82
2017-02-26T03:07:37.879Z,1012.78
2017-02-26T03:08:18.605Z,1012.78
2017-02-26T03:08:59.228Z,1012.78
2017-02-26T03:09:39.860Z,1012.8
2017-02-26T03:10:20.587Z,1012.76
2017-02-26T03:11:01.245Z,1012.76
2017-02-26T03:11:41.870Z,1012.75
2017-02-26T03:12:22.562Z,1012.77
2017-02-26T03:13:03.242Z,1012.78
2017-02-26T03:13:43.884Z,1012.75
2017-02-26T03:14:24.515Z,1012.75
2017-02-26T03:15:05.160Z,1012.79
2017-02-26T03:15:45.916Z,1012.75
2017-02-26T03:16:26.565Z,1012.75
2017-02-26T03:17:07.251Z,1012.79
2017-02-26T03:17:47.874Z,1012.78
2017-02-26T03:18:28.513Z,1012.79
2017-02-26T03:19:10.192Z,1012.78
2017-02-26T03:19:50.857Z,1012.83
2017-02-26T03:20:31.506Z,1012.8
2017-02-26T03:21:12.148Z,1012.78
2017-02-26T03:21:52.842Z,1012.81
2017-02-26T03:22:33.469Z,1012.78
2017-02-26T03:23:14.192Z,1012.8
2017-02-26T03:23:54.933Z,1012.8
2017-02-26T03:24:35.628Z,1012.81
2017-02-26T03:25:16.256Z,1012.8
2017-02-26T03:25:56.945Z,1012.78
2017-02-26T03:26:37.694Z,1012.76
2017-02-26T03:27:18.356Z,1012.77
2017-02-26T03:27:59.045Z,1012.78
2017-02-26T03:28:39.773Z,1012.79
2017-02-26T03:29:20.450Z,1012.77
2017-02-26T03:30:01.096Z,1012.77
2017-02-26T03:30:41.748Z,1012.81
2017-02-26T03:31:22.513Z,1012.76
2017-02-26T03:32:03.144Z,1012.79
2017-02-26T03:32:43.776Z,1012.76
2017-02-26T03:33:24.442Z,1012.79
2017-02-26T03:34:05.077Z,1012.73
2017-02-26T03:34:45.760Z,1012.74
2017-02-26T03:35:26.448Z,1012.77
2017-02-26T03:36:07.081Z,1012.77
2017-02-26T03:36:47.722Z,1012.77
2017-02-26T03:37:28.410Z,1012.76
2017-02-26T03:38:09.041Z,1012.81
2017-02-26T03:38:49.675Z,1012.77
2017-02-26T03:39:30.331Z,1012.78
2017-02-26T03:40:10.960Z,1012.78
2017-02-26T03:40:51.601Z,1012.77
2017-02-26T03:41:32.273Z,1012.75
2017-02-26T03:42:12.905Z,1012.71
2017-02-26T03:42:53.531Z,1012.72
2017-02-26T03:43:34.188Z,1012.73
2017-02-26T03:44:14.882Z,1012.7
2017-02-26T03:44:55.517Z,1012.72
2017-02-26T03:45:36.251Z,1012.68
2017-02-26T03:46:16.901Z,1012.71
2017-02-26T03:46:57.528Z,1012.66
2017-02-26T03:47:38.180Z,1012.66
2017-02-26T03:48:18.858Z,1012.68
2017-02-26T03:48:59.489Z,1012.67
2017-02-26T03:49:40.201Z,1012.67
2017-02-26T03:50:20.893Z,1012.61
2017-02-26T03:51:01.551Z,1012.62
2017-02-26T03:51:42.183Z,1012.61
2017-02-26T03:52:22.877Z,1012.66
2017-02-26T03:53:03.559Z,1012.62
2017-02-26T03:53:44.197Z,1012.59
2017-02-26T03:54:24.868Z,1012.6
2017-02-26T03:55:05.595Z,1012.58
2017-02-26T03:55:46.219Z,1012.62
2017-02-26T03:56:26.853Z,1012.62
2017-02-26T03:57:07.484Z,1012.59
2017-02-26T03:57:48.120Z,1012.6
2017-02-26T03:58:28.856Z,1012.63
2017-02-26T03:59:09.551Z,1012.67
2017-02-26T03:59:50.230Z,1012.64
2017-02-26T04:00:30.878Z,1012.67
2017-02-26T04:01:11.532Z,1012.67
2017-02-26T04:01:52.184Z,1012.61
2017-02-26T04:02:32.811Z,1012.6
2017-02-26T04:03:13.456Z,1012.61
2017-02-26T04:03:54.090Z,1012.56
2017-02-26T04:04:34.714Z,1012.57
2017-02-26T04:05:15.345Z,1012.63
2017-02-26T04:05:55.987Z,1012.66
2017-02-26T04:06:36.620Z,1012.66
2017-02-26T04:07:17.305Z,1012.64
2017-02-26T04:07:57.928Z,1012.65
2017-02-26T04:08:38.564Z,1012.65
2017-02-26T04:09:19.200Z,1012.64
2017-02-26T04:09:59.898Z,1012.64
2017-02-26T04:10:40.524Z,1012.62
2017-02-26T04:11:21.250Z,1012.66
2017-02-26T04:12:01.953Z,1012.64
2017-02-26T04:12:42.581Z,1012.66
2017-02-26T04:13:23.215Z,1012.65
2017-02-26T04:14:03.881Z,1012.61
2017-02-26T04:14:44.505Z,1012.65
2017-02-26T04:15:25.132Z,1012.65
2017-02-26T04:16:05.844Z,1012.66
2017-02-26T04:16:46.477Z,1012.6
2017-02-26T04:17:27.112Z,1012.61
2017-02-26T04:18:07.841Z,1012.65
2017-02-26T04:18:48.469Z,1012.64
2017-02-26T04:19:29.114Z,1012.63
2017-02-26T04:20:09.805Z,1012.66
2017-02-26T04:20:50.433Z,1012.67
2017-02-26T04:21:31.061Z,1012.66
2017-02-26T04:22:11.726Z,1012.66
2017-02-26T04:22:52.356Z,1012.64
2017-02-26T04:23:32.982Z,1012.65
2017-02-26T04:24:13.640Z,1012.67
2017-02-26T04:24:54.291Z,1012.62
2017-02-26T04:25:34.924Z,1012.63
2017-02-26T04:26:15.586Z,1012.62
2017-02-26T04:26:56.296Z,1012.66
2017-02-26T04:27:36.926Z,1012.62
2017-02-26T04:28:17.617Z,1012.63
2017-02-26T04:28:58.368Z,1012.67
2017-02-26T04:29:39.059Z,1012.61
2017-02-26T04:30:19.618Z,1012.61
2017-02-26T04:31:00.347Z,1012.63
2017-02-26T04:31:40.976Z,1012.63
2017-02-26T04:32:21.606Z,1012.67
2017-02-26T04:33:02.231Z,1012.67
2017-02-26T04:33:42.967Z,1012.68
2017-02-26T04:34:23.622Z,1012.64
2017-02-26T04:35:04.258Z,1012.63
2017-02-26T04:35:44.886Z,1012.63
2017-02-26T04:36:25.511Z,1012.66
2017-02-26T04:37:06.143Z,1012.67
2017-02-26T04:37:46.872Z,1012.69
2017-02-26T04:38:27.496Z,1012.69
2017-02-26T04:39:08.158Z,1012.67
2017-02-26T04:39:48.919Z,1012.63
2017-02-26T04:40:29.554Z,1012.64
2017-02-26T04:41:10.187Z,1012.68
2017-02-26T04:41:50.854Z,1012.7
2017-02-26T04:42:31.493Z,1012.69
2017-02-26T04:43:12.191Z,1012.63
2017-02-26T04:43:52.821Z,1012.67
2017-02-26T04:44:33.544Z,1012.62
2017-02-26T04:45:14.187Z,1012.65
2017-02-26T04:45:54.851Z,1012.65
2017-02-26T04:46:35.547Z,1012.64
2017-02-26T04:47:16.170Z,1012.61
2017-02-26T04:47:56.869Z,1012.6
2017-02-26T04:48:37.561Z,1012.63
2017-02-26T04:49:18.196Z,1012.62
2017-02-26T04:49:58.919Z,1012.61
2017-02-26T04:50:39.585Z,1012.64
2017-02-26T04:51:20.291Z,1012.61
2017-02-26T04:52:00.940Z,1012.6
2017-02-26T04:52:41.657Z,1012.65
2017-02-26T04:53:22.341Z,1012.67
2017-02-26T04:54:02.975Z,1012.65
2017-02-26T04:54:43.695Z,1012.62
2017-02-26T04:55:24.362Z,1012.63
2017-02-26T04:56:04.998Z,1012.65
2017-02-26T04:56:45.678Z,1012.65
2017-02-26T04:57:26.376Z,1012.65
2017-02-26T04:58:07.069Z,1012.61
2017-02-26T04:58:47.699Z,1012.63
2017-02-26T04:59:28.441Z,1012.63
2017-02-26T05:00:09.153Z,1012.65
2017-02-26T05:00:49.776Z,1012.67
2017-02-26T05:01:30.521Z,1012.64
2017-02-26T05:02:11.150Z,1012.65
2017-02-26T05:02:51.815Z,1012.65
2017-02-26T05:03:32.482Z,1012.66
2017-02-26T05:04:13.118Z,1012.63
2017-02-26T05:04:53.794Z,1012.63
2017-02-26T05:05:34.434Z,1012.66
2017-02-26T05:06:15.146Z,1012.71
2017-02-26T05:06:55.796Z,1012.72
2017-02-26T05:07:36.444Z,1012.74
2017-02-26T05:08:17.083Z,1012.83
2017-02-26T05:08:57.827Z,1012.74
2017-02-26T05:09:38.453Z,1012.69
2017-02-26T05:10:19.117Z,1012.7
2017-02-26T05:10:59.872Z,1012.76
2017-02-26T05:11:40.584Z,1012.79
2017-02-26T05:12:21.218Z,1012.77
2017-02-26T05:13:01.895Z,1012.71
2017-02-26T05:13:42.636Z,1012.73
2017-02-26T05:14:23.265Z,1012.76
2017-02-26T05:15:03.923Z,1012.72
2017-02-26T05:15:44.577Z,1012.75
2017-02-26T05:16:25.206Z,1012.72
2017-02-26T05:17:05.849Z,1012.73
2017-02-26T05:17:46.528Z,1012.71
2017-02-26T05:18:27.207Z,1012.72
2017-02-26T05:19:07.791Z,1012.72
2017-02-26T05:19:48.531Z,1012.76
2017-02-26T05:20:29.175Z,1012.76
2017-02-26T05:21:09.802Z,1012.73
2017-02-26T05:21:50.469Z,1012.78
2017-02-26T05:22:31.162Z,1012.77
2017-02-26T05:23:11.792Z,1012.77
2017-02-26T05:23:52.426Z,1012.74
2017-02-26T05:24:33.071Z,1012.75
2017-02-26T05:25:13.732Z,1012.76
2017-02-26T05:25:54.417Z,1012.75
2017-02-26T05:26:35.150Z,1012.77
2017-02-26T05:27:15.780Z,1012.73
2017-02-26T05:27:56.442Z,1012.72
2017-02-26T05:28:37.186Z,1012.74
2017-02-26T05:29:17.812Z,1012.71
2017-02-26T05:29:58.447Z,1012.75
2017-02-26T05:30:39.140Z,1012.74
2017-02-26T05:31:19.844Z,1012.76
2017-02-26T05:32:00.468Z,1012.74
2017-02-26T05:32:41.095Z,1012.71
2017-02-26T05:33:21.723Z,1012.67
2017-02-26T05:34:02.352Z,1012.71
2017-02-26T05:34:43.030Z,1012.73
2017-02-26T05:35:23.658Z,1012.73
2017-02-26T05:36:04.280Z,1012.73
2017-02-26T05:36:45.057Z,1012.76
2017-02-26T05:37:25.743Z,1012.76
2017-02-26T05:38:06.370Z,1012.74
2017-02-26T05:38:47.009Z,1012.76
2017-02-26T05:39:27.689Z,1012.76
2017-02-26T05:40:08.320Z,1012.78
2017-02-26T05:40:48.953Z,1012.77
2017-02-26T05:41:29.629Z,1012.75
2017-02-26T05:42:10.263Z,1012.75
2017-02-26T05:42:50.972Z,1012.78
2017-02-26T05:43:31.649Z,1012.77
2017-02-26T05:44:12.274Z,1012.79
2017-02-26T05:44:52.926Z,1012.78
2017-02-26T05:45:33.580Z,1012.76
2017-02-26T05:46:14.214Z,1012.75
2017-02-26T05:46:54.837Z,1012.77
2017-02-26T05:47:35.562Z,1012.79
2017-02-26T05:48:16.194Z,1012.81
2017-02-26T05:48:56.823Z,1012.85
2017-02-26T05:49:37.528Z,1012.81
2017-02-26T05:50:18.237Z,1012.83
2017-02-26T05:50:58.874Z,1012.83
2017-02-26T05:51:39.561Z,1012.83
2017-02-26T05:52:20.274Z,1012.83
2017-02-26T05:53:00.947Z,1012.8
2017-02-26T05:53:41.595Z,1012.8
2017-02-26T05:54:22.285Z,1012.83
2017-02-26T05:55:02.952Z,1012.84
2017-02-26T05:55:43.581Z,1012.81
2017-02-26T05:56:24.217Z,1012.83
2017-02-26T05:57:04.860Z,1012.83
2017-02-26T05:57:45.481Z,1012.81
2017-02-26T05:58:26.114Z,1012.81
2017-02-26T05:59:06.742Z,1012.82
2017-02-26T05:59:47.374Z,1012.81
2017-02-26T06:00:28.013Z,1012.83
2017-02-26T06:01:08.718Z,1012.82
2017-02-26T06:01:49.346Z,1012.81
2017-02-26T06:02:30.048Z,1012.81
2017-02-26T06:03:10.757Z,1012.84
2017-02-26T06:03:51.379Z,1012.8
2017-02-26T06:04:32.105Z,1012.83
2017-02-26T06:05:12.784Z,1012.82
2017-02-26T06:05:53.438Z,1012.84
2017-02-26T06:06:34.128Z,1012.82
2017-02-26T06:07:14.878Z,1012.83
2017-02-26T06:07:55.544Z,1012.8
2017-02-26T06:08:36.173Z,1012.81
2017-02-26T06:09:16.906Z,1012.83
2017-02-26T06:09:57.591Z,1012.83
2017-02-26T06:10:38.295Z,1012.81
2017-02-26T06:11:18.941Z,1012.81
2017-02-26T06:11:59.677Z,1012.76
2017-02-26T06:12:40.346Z,1012.8
2017-02-26T06:13:20.994Z,1012.79
2017-02-26T06:14:01.754Z,1012.84
2017-02-26T06:14:42.380Z,1012.84
2017-02-26T06:15:23.033Z,1012.85
2017-02-26T06:16:03.641Z,1012.84
2017-02-26T06:16:44.268Z,1012.89
2017-02-26T06:17:24.921Z,1012.89
2017-02-26T06:18:05.591Z,1012.87
2017-02-26T06:18:46.319Z,1012.86
2017-02-26T06:19:26.990Z,1012.88
2017-02-26T06:20:07.624Z,1012.9
2017-02-26T06:20:48.329Z,1012.89
2017-02-26T06:21:28.959Z,1012.83
2017-02-26T06:22:09.581Z,1012.85
2017-02-26T06:22:50.251Z,1012.85
2017-02-26T06:23:30.884Z,1012.82
2017-02-26T06:24:11.514Z,1012.81
2017-02-26T06:24:52.151Z,1012.81
2017-02-26T06:25:32.778Z,1012.8
2017-02-26T06:26:13.413Z,1012.86
2017-02-26T06:26:54.125Z,1012.75
2017-02-26T06:27:34.779Z,1012.83
2017-02-26T06:28:15.421Z,1012.79
2017-02-26T06:28:56.078Z,1012.81
2017-02-26T06:29:36.749Z,1012.8
2017-02-26T06:30:17.379Z,1012.81
2017-02-26T06:30:58.072Z,1012.82
2017-02-26T06:31:38.705Z,1012.85
2017-02-26T06:32:19.340Z,1012.82
2017-02-26T06:33:00.036Z,1012.84
2017-02-26T06:33:40.704Z,1012.89
2017-02-26T06:34:21.376Z,1012.87
2017-02-26T06:35:02.020Z,1012.89
2017-02-26T06:35:42.649Z,1012.89
2017-02-26T06:36:23.285Z,1012.9
2017-02-26T06:37:03.918Z,1012.89
2017-02-26T06:37:44.566Z,1012.92
2017-02-26T06:38:25.224Z,1012.91
2017-02-26T06:39:05.855Z,1012.91
2017-02-26T06:39:46.490Z,1012.91
2017-02-26T06:40:27.163Z,1012.91
2017-02-26T06:41:07.822Z,1012.96
2017-02-26T06:41:48.586Z,1012.95
2017-02-26T06:42:29.224Z,1012.97
2017-02-26T06:43:09.860Z,1012.94
2017-02-26T06:43:50.522Z,1012.96
2017-02-26T06:44:31.147Z,1012.97
2017-02-26T06:45:11.782Z,1012.93
2017-02-26T06:45:52.432Z,1012.91
2017-02-26T06:46:33.073Z,1012.95
2017-02-26T06:47:13.704Z,1012.92
2017-02-26T06:47:54.364Z,1012.95
2017-02-26T06:48:35.039Z,1012.95
2017-02-26T06:49:15.669Z,1012.93
2017-02-26T06:49:56.364Z,1012.95
2017-02-26T06:50:37.038Z,1012.95
2017-02-26T06:51:17.709Z,1012.93
2017-02-26T06:51:58.325Z,1012.95
2017-02-26T06:52:39.052Z,1012.96
2017-02-26T06:53:19.715Z,1012.99
2017-02-26T06:54:00.336Z,1012.94
2017-02-26T06:54:40.963Z,1012.96
2017-02-26T06:55:21.647Z,1012.95
2017-02-26T06:56:02.277Z,1012.95
2017-02-26T06:56:42.951Z,1012.96
2017-02-26T06:57:23.628Z,1012.91
2017-02-26T06:58:04.256Z,1012.98
2017-02-26T06:58:44.961Z,1012.97
2017-02-26T06:59:25.627Z,1012.95
2017-02-26T07:00:06.255Z,1012.98
2017-02-26T07:00:46.899Z,1013
2017-02-26T07:01:27.552Z,1013
2017-02-26T07:02:08.179Z,1013
2017-02-26T07:02:48.916Z,1012.96
2017-02-26T07:03:29.627Z,1013.01
2017-02-26T07:04:10.341Z,1013
2017-02-26T07:04:50.978Z,1013
2017-02-26T07:05:31.644Z,1013
2017-02-26T07:06:12.284Z,1012.98
2017-02-26T07:06:52.915Z,1012.98
2017-02-26T07:07:33.606Z,1012.97
2017-02-26T07:08:14.235Z,1013.02
2017-02-26T07:08:54.870Z,1012.99
2017-02-26T07:09:35.543Z,1013.03
2017-02-26T07:10:16.175Z,1013.02
2017-02-26T07:10:56.793Z,1013.05
2017-02-26T07:11:37.462Z,1013.04
2017-02-26T07:12:18.097Z,1013.08
2017-02-26T07:12:58.723Z,1013.04
2017-02-26T07:13:39.398Z,1013.04
2017-02-26T07:14:20.026Z,1013.09
2017-02-26T07:15:00.675Z,1013.1
2017-02-26T07:15:41.317Z,1013.09
2017-02-26T07:16:21.950Z,1013.07
2017-02-26T07:17:02.584Z,1013.08
2017-02-26T07:17:43.255Z,1013.05
2017-02-26T07:18:23.912Z,1013
2017-02-26T07:19:04.540Z,1013.03
2017-02-26T07:19:45.253Z,1013.01
2017-02-26T07:20:25.925Z,1013.03
2017-02-26T07:21:06.573Z,1013.02
2017-02-26T07:21:47.180Z,1013.06
2017-02-26T07:22:27.928Z,1013.05
2017-02-26T07:23:09.301Z,1013.05
2017-02-26T07:23:50.769Z,1013.07
2017-02-26T07:24:31.416Z,1013.04
2017-02-26T07:25:12.054Z,1013.07
2017-02-26T07:25:52.678Z,1013.08
2017-02-26T07:26:33.311Z,1013.11
2017-02-26T07:27:13.968Z,1013.1
2017-02-26T07:27:54.686Z,1013.08
2017-02-26T07:28:35.322Z,1013.09
2017-02-26T07:29:15.959Z,1013.11
2017-02-26T07:29:56.656Z,1013.1
2017-02-26T07:30:37.362Z,1013.13
2017-02-26T07:31:17.991Z,1013.1
2017-02-26T07:31:58.645Z,1013.12
2017-02-26T07:32:39.281Z,1013.15
2017-02-26T07:33:19.908Z,1013.13
2017-02-26T07:34:00.542Z,1013.17
2017-02-26T07:34:41.176Z,1013.21
2017-02-26T07:35:21.797Z,1013.26
2017-02-26T07:36:02.526Z,1013.25
2017-02-26T07:36:43.256Z,1013.25
2017-02-26T07:37:23.904Z,1013.28
2017-02-26T07:38:04.549Z,1013.28
2017-02-26T07:38:45.286Z,1013.29
2017-02-26T07:39:26.025Z,1013.28
2017-02-26T07:40:06.674Z,1013.25
2017-02-26T07:40:47.305Z,1013.3
2017-02-26T07:41:27.942Z,1013.3
2017-02-26T07:42:08.584Z,1013.29
2017-02-26T07:42:49.235Z,1013.34
2017-02-26T07:43:29.865Z,1013.31
2017-02-26T07:44:10.491Z,1013.33
2017-02-26T07:44:51.118Z,1013.34
2017-02-26T07:45:31.746Z,1013.34
2017-02-26T07:46:12.378Z,1013.34
2017-02-26T07:46:53.051Z,1013.36
2017-02-26T07:47:33.690Z,1013.36
2017-02-26T07:48:14.335Z,1013.37
2017-02-26T07:48:55.060Z,1013.37
2017-02-26T07:49:35.791Z,1013.32
2017-02-26T07:50:16.426Z,1013.36
2017-02-26T07:50:57.052Z,1013.38
2017-02-26T07:51:37.711Z,1013.41
2017-02-26T07:52:18.330Z,1013.42
2017-02-26T07:52:58.961Z,1013.41
2017-02-26T07:53:39.654Z,1013.41
2017-02-26T07:54:20.287Z,1013.41
2017-02-26T07:55:00.909Z,1013.43
2017-02-26T07:55:41.617Z,1013.45
2017-02-26T07:56:22.334Z,1013.48
2017-02-26T07:57:02.990Z,1013.42
2017-02-26T07:57:43.616Z,1013.49
2017-02-26T07:58:24.270Z,1013.47
2017-02-26T07:59:04.902Z,1013.46
2017-02-26T07:59:45.644Z,1013.48
2017-02-26T08:00:26.368Z,1013.51
2017-02-26T08:01:07.008Z,1013.5
2017-02-26T08:01:47.704Z,1013.53
2017-02-26T08:02:28.371Z,1013.54
2017-02-26T08:03:09.070Z,1013.54
2017-02-26T08:03:49.721Z,1013.53
2017-02-26T08:04:30.389Z,1013.53
2017-02-26T08:05:11.042Z,1013.54
2017-02-26T08:05:51.671Z,1013.53
2017-02-26T08:06:32.416Z,1013.6
2017-02-26T08:07:13.148Z,1013.57
2017-02-26T08:07:53.891Z,1013.58
2017-02-26T08:08:34.448Z,1013.6
2017-02-26T08:09:15.077Z,1013.58
2017-02-26T08:09:55.750Z,1013.56
2017-02-26T08:10:36.370Z,1013.58
2017-02-26T08:11:17.015Z,1013.64
2017-02-26T08:11:57.708Z,1013.65
2017-02-26T08:12:38.357Z,1013.66
2017-02-26T08:13:19.008Z,1013.65
2017-02-26T08:13:59.701Z,1013.62